createdAt,value
2022-08-03T00:01:35.584Z,78.97
2022-08-03T00:04:04.511Z,79.33
2022-08-03T00:06:36.981Z,78.49
2022-08-03T00:09:06.024Z,78.57
2022-08-03T00:11:34.442Z,78.95
2022-08-03T00:14:02.151Z,79.21
2022-08-03T00:16:29.846Z,79.34
2022-08-03T00:18:57.509Z,79.26
2022-08-03T00:21:25.454Z,79.63
2022-08-03T00:23:54.410Z,79.74
2022-08-03T00:26:22.288Z,79.88
2022-08-03T00:28:50.582Z,80.79
2022-08-03T00:31:35.227Z,81.78
2022-08-03T00:34:06.822Z,82.43
2022-08-03T00:36:34.777Z,82.89
2022-08-03T00:39:03.881Z,83.14
2022-08-03T00:41:31.489Z,83.30
2022-08-03T00:43:59.124Z,83.83
2022-08-03T00:46:26.762Z,84.44
2022-08-03T00:48:54.853Z,84.95
2022-08-03T00:51:23.432Z,85.17
2022-08-03T00:53:51.946Z,86.01
2022-08-03T00:56:20.919Z,86.24
2022-08-03T00:58:48.891Z,86.32
2022-08-03T01:01:16.640Z,86.45
2022-08-03T01:03:45.498Z,86.61
2022-08-03T01:06:18.574Z,86.30
2022-08-03T01:08:53.477Z,86.66
2022-08-03T01:11:33.323Z,86.83
2022-08-03T01:14:18.549Z,87.12
2022-08-03T01:16:56.307Z,87.38
2022-08-03T01:19:39.887Z,87.96
2022-08-03T01:22:19.335Z,88.17
2022-08-03T01:24:57.468Z,87.90
2022-08-03T01:27:32.102Z,87.54
2022-08-03T01:30:07.296Z,88.21
2022-08-03T01:33:02.686Z,88.33
2022-08-03T01:35:38.992Z,88.40
2022-08-03T01:38:12.562Z,89.30
2022-08-03T01:40:42.822Z,89.67
2022-08-03T01:43:13.726Z,89.74
2022-08-03T01:45:44.622Z,89.94
2022-08-03T01:48:16.796Z,89.56
2022-08-03T01:50:46.059Z,89.92
2022-08-03T01:53:16.849Z,90.22
2022-08-03T01:55:47.234Z,90.19
2022-08-03T01:58:17.504Z,90.18
2022-08-03T02:00:48.745Z,90.57
2022-08-03T02:03:17.798Z,90.65
2022-08-03T02:05:46.838Z,90.58
2022-08-03T02:08:17.288Z,90.98
2022-08-03T02:10:47.018Z,91.01
2022-08-03T02:13:17.186Z,91.44
2022-08-03T02:15:48.323Z,91.20
2022-08-03T02:18:16.777Z,91.40
2022-08-03T02:20:45.509Z,91.67
2022-08-03T02:23:13.497Z,92.34
2022-08-03T02:25:46.870Z,92.92
2022-08-03T02:28:19.315Z,93.05
2022-08-03T02:30:54.751Z,93.24
2022-08-03T02:33:27.387Z,93.02
2022-08-03T02:35:56.080Z,93.15
2022-08-03T02:38:29.412Z,93.75
2022-08-03T02:40:59.376Z,93.83
2022-08-03T02:43:29.551Z,94.54
2022-08-03T02:46:21.519Z,94.90
2022-08-03T02:48:53.030Z,95.12
2022-08-03T02:51:22.256Z,95.90
2022-08-03T02:53:50.681Z,95.94
2022-08-03T02:56:20.200Z,96.04
2022-08-03T02:58:50.675Z,96.25
2022-08-03T03:01:20.468Z,95.80
2022-08-03T03:03:49.739Z,96.85
2022-08-03T03:06:20.099Z,96.88
2022-08-03T03:08:51.399Z,97.52
2022-08-03T03:11:20.947Z,97.39
2022-08-03T03:13:50.336Z,97.60
2022-08-03T03:16:20.034Z,97.78
2022-08-03T03:18:49.772Z,98.35
2022-08-03T03:21:20.499Z,97.81
2022-08-03T03:23:49.759Z,97.95
2022-08-03T03:26:18.217Z,98.72
2022-08-03T03:28:47.099Z,98.70
2022-08-03T03:31:15.048Z,98.90
2022-08-03T03:33:44.662Z,99.04
2022-08-03T03:36:12.336Z,98.81
2022-08-03T03:38:40.116Z,98.70
2022-08-03T03:41:07.825Z,99.02
2022-08-03T03:43:35.678Z,99.39
2022-08-03T03:46:03.702Z,100.00
2022-08-03T03:48:32.305Z,99.15
2022-08-03T03:51:01.977Z,99.46
2022-08-03T03:53:29.643Z,99.93
2022-08-03T03:55:57.899Z,100.00
2022-08-03T03:58:30.182Z,100.00
2022-08-03T04:00:57.880Z,100.00
2022-08-03T04:03:25.637Z,100.00
2022-08-03T04:06:10.998Z,100.00
2022-08-03T04:08:59.147Z,100.00
2022-08-03T04:11:31.831Z,100.00
2022-08-03T04:14:02.781Z,100.00
2022-08-03T04:16:34.681Z,100.00
2022-08-03T04:19:11.394Z,100.00
2022-08-03T04:21:44.362Z,100.00
2022-08-03T04:24:15.004Z,100.00
2022-08-03T04:26:45.936Z,100.00
2022-08-03T04:29:17.138Z,100.00
2022-08-03T04:31:47.674Z,100.00
2022-08-03T04:34:15.549Z,99.16
2022-08-03T04:36:48.190Z,98.08
2022-08-03T04:39:21.220Z,97.90
2022-08-03T04:42:07.083Z,97.57
2022-08-03T04:44:39.391Z,97.15
2022-08-03T04:47:07.483Z,97.00
2022-08-03T04:49:37.144Z,96.35
2022-08-03T04:52:06.414Z,95.19
2022-08-03T04:54:42.596Z,93.92
2022-08-03T04:57:22.301Z,92.47
2022-08-03T04:59:55.667Z,93.27
2022-08-03T05:02:28.859Z,92.41
2022-08-03T05:04:56.539Z,92.24
2022-08-03T05:07:25.143Z,91.75
2022-08-03T05:09:57.719Z,90.55
2022-08-03T05:12:33.967Z,91.16
2022-08-03T05:15:01.910Z,89.86
2022-08-03T05:17:30.031Z,90.01
2022-08-03T05:19:58.111Z,88.74
2022-08-03T05:22:25.794Z,87.45
2022-08-03T05:24:54.789Z,87.10
2022-08-03T05:27:22.667Z,86.97
2022-08-03T05:29:51.572Z,87.01
2022-08-03T05:32:19.775Z,86.86
2022-08-03T05:34:47.562Z,85.18
2022-08-03T05:37:15.279Z,84.92
2022-08-03T05:39:43.398Z,84.91
2022-08-03T05:42:12.470Z,82.88
2022-08-03T05:44:40.149Z,81.77
2022-08-03T05:47:08.787Z,81.74
2022-08-03T05:49:36.619Z,79.73
2022-08-03T05:52:21.987Z,77.41
2022-08-03T05:54:55.932Z,76.40
2022-08-03T05:57:26.585Z,74.33
2022-08-03T05:59:57.968Z,74.00
2022-08-03T06:02:26.758Z,73.61
2022-08-03T06:04:54.543Z,72.25
2022-08-03T06:07:22.449Z,70.16
2022-08-03T06:10:35.601Z,66.73
2022-08-03T06:12:41.207Z,63.18
2022-08-03T06:15:11.258Z,61.53
2022-08-03T06:17:46.586Z,60.47
2022-08-03T06:20:14.282Z,59.78
2022-08-03T06:22:50.418Z,57.39
2022-08-03T06:25:21.254Z,56.04
2022-08-03T06:27:50.489Z,55.93
2022-08-03T06:30:21.279Z,54.21
2022-08-03T06:32:51.808Z,52.84
2022-08-03T06:35:20.528Z,51.35
2022-08-03T06:37:49.896Z,49.94
2022-08-03T06:40:21.689Z,49.16
2022-08-03T06:42:53.341Z,48.67
2022-08-03T06:45:22.743Z,47.31
2022-08-03T06:48:01.861Z,44.55
2022-08-03T06:50:29.931Z,43.35
2022-08-03T06:52:58.123Z,41.92
2022-08-03T06:55:26.590Z,40.10
2022-08-03T06:57:55.756Z,40.36
2022-08-03T07:00:28.983Z,39.58
2022-08-03T07:02:58.477Z,38.94
2022-08-03T07:05:26.875Z,38.45
2022-08-03T07:07:56.770Z,38.34
2022-08-03T07:10:24.773Z,37.80
2022-08-03T07:12:56.373Z,36.32
2022-08-03T07:15:53.831Z,36.66
2022-08-03T07:18:13.595Z,35.66
2022-08-03T07:20:42.201Z,35.20
2022-08-03T07:23:16.109Z,35.22
2022-08-03T07:25:47.235Z,35.12
2022-08-03T07:28:14.836Z,35.29
2022-08-03T07:30:43.862Z,35.31
2022-08-03T07:33:11.551Z,35.67
2022-08-03T07:35:39.577Z,35.45
2022-08-03T07:38:07.354Z,35.37
2022-08-03T07:40:35.129Z,35.45
2022-08-03T07:43:03.896Z,35.21
2022-08-03T07:45:32.345Z,34.74
2022-08-03T07:48:01.831Z,34.72
2022-08-03T07:50:29.647Z,33.78
2022-08-03T07:52:58.111Z,32.44
2022-08-03T07:55:27.953Z,33.32
2022-08-03T07:58:03.008Z,32.81
2022-08-03T08:00:30.866Z,32.15
2022-08-03T08:02:58.806Z,32.26
2022-08-03T08:05:28.314Z,31.92
2022-08-03T08:07:56.518Z,31.71
2022-08-03T08:10:24.359Z,31.58
2022-08-03T08:12:52.115Z,30.91
2022-08-03T08:15:19.909Z,32.09
2022-08-03T08:17:49.972Z,31.55
2022-08-03T08:20:27.663Z,31.06
2022-08-03T08:23:01.052Z,31.33
2022-08-03T08:25:30.147Z,31.35
2022-08-03T08:28:31.220Z,31.13
2022-08-03T08:30:46.286Z,31.49
2022-08-03T08:33:22.409Z,31.40
2022-08-03T08:35:51.634Z,30.71
2022-08-03T08:38:20.590Z,30.68
2022-08-03T08:40:48.939Z,29.56
2022-08-03T08:43:16.731Z,29.20
2022-08-03T08:45:46.037Z,29.46
2022-08-03T08:48:14.919Z,29.49
2022-08-03T08:50:42.866Z,28.40
2022-08-03T08:53:18.287Z,28.54
2022-08-03T08:55:57.955Z,28.62
2022-08-03T08:58:30.796Z,28.71
2022-08-03T09:00:58.521Z,29.08
2022-08-03T09:03:30.157Z,29.83
2022-08-03T09:06:00.636Z,29.30
2022-08-03T09:08:28.759Z,28.92
2022-08-03T09:10:57.689Z,28.55
2022-08-03T09:13:25.775Z,29.00
2022-08-03T09:16:12.080Z,29.23
2022-08-03T09:18:39.892Z,28.21
2022-08-03T09:21:30.608Z,28.46
2022-08-03T09:24:05.635Z,27.52
2022-08-03T09:26:37.952Z,27.56
2022-08-03T09:29:13.223Z,27.34
2022-08-03T09:31:45.084Z,27.41
2022-08-03T09:34:15.767Z,27.24
2022-08-03T09:36:44.872Z,26.64
2022-08-03T09:39:14.918Z,26.37
2022-08-03T09:41:45.094Z,26.76
2022-08-03T09:44:16.167Z,25.47
2022-08-03T09:46:56.034Z,25.74
2022-08-03T09:49:24.330Z,26.90
2022-08-03T09:52:32.330Z,26.09
2022-08-03T09:54:40.503Z,26.57
2022-08-03T09:57:10.033Z,26.99
2022-08-03T09:59:38.074Z,27.66
2022-08-03T10:02:06.937Z,27.22
2022-08-03T10:04:34.929Z,26.81
2022-08-03T10:07:05.436Z,26.31
2022-08-03T10:09:33.387Z,26.03
2022-08-03T10:12:10.469Z,26.30
2022-08-03T10:14:39.756Z,25.32
2022-08-03T10:17:07.481Z,26.42
2022-08-03T10:19:35.207Z,26.55
2022-08-03T10:22:05.551Z,26.59
2022-08-03T10:24:36.132Z,26.40
2022-08-03T10:27:07.149Z,26.26
2022-08-03T10:29:39.634Z,26.09
2022-08-03T10:32:16.921Z,26.52
2022-08-03T10:34:46.234Z,25.73
2022-08-03T10:37:17.355Z,25.73
2022-08-03T10:39:54.192Z,25.30
2022-08-03T10:42:24.683Z,26.28
2022-08-03T10:45:04.096Z,26.17
2022-08-03T10:47:32.439Z,26.19
2022-08-03T10:50:01.132Z,25.69
2022-08-03T10:52:33.779Z,26.12
2022-08-03T10:55:48.385Z,25.98
2022-08-03T10:58:30.665Z,26.12
2022-08-03T11:00:59.943Z,26.10
2022-08-03T11:03:27.598Z,26.47
2022-08-03T11:06:14.995Z,26.04
2022-08-03T11:08:42.689Z,25.56
2022-08-03T11:11:28.421Z,25.66
2022-08-03T11:14:02.693Z,25.42
2022-08-03T11:16:34.968Z,24.78
2022-08-03T11:19:04.974Z,25.70
2022-08-03T11:21:55.055Z,26.79
2022-08-03T11:24:59.368Z,26.50
2022-08-03T11:27:30.168Z,25.91
2022-08-03T11:30:00.964Z,26.36
2022-08-03T11:32:56.268Z,25.79
2022-08-03T11:35:25.423Z,25.56
2022-08-03T11:38:10.295Z,25.92
2022-08-03T11:40:49.290Z,25.86
2022-08-03T11:43:46.228Z,25.75
2022-08-03T11:46:29.483Z,26.16
2022-08-03T11:49:09.824Z,25.19
2022-08-03T11:51:38.787Z,27.04
2022-08-03T11:54:07.954Z,26.79
2022-08-03T11:56:46.240Z,26.17
2022-08-03T11:59:20.283Z,25.31
2022-08-03T12:01:49.612Z,25.46
2022-08-03T12:04:18.634Z,25.28
2022-08-03T12:06:59.547Z,25.28
2022-08-03T12:09:27.745Z,25.46
2022-08-03T12:12:00.494Z,25.98
2022-08-03T12:14:48.862Z,25.14
2022-08-03T12:17:17.768Z,25.48
2022-08-03T12:19:47.211Z,25.24
2022-08-03T12:22:16.022Z,25.17
2022-08-03T12:24:46.411Z,25.29
2022-08-03T12:27:24.393Z,25.13
2022-08-03T12:29:57.067Z,25.33
2022-08-03T12:32:27.453Z,24.32
2022-08-03T12:35:00.052Z,24.32
2022-08-03T12:37:28.573Z,23.39
2022-08-03T12:40:05.125Z,23.29
2022-08-03T12:42:39.026Z,23.38
2022-08-03T12:45:19.567Z,23.40
2022-08-03T12:47:55.246Z,23.29
2022-08-03T12:50:29.193Z,22.42
2022-08-03T12:52:58.660Z,22.18
2022-08-03T12:55:56.240Z,22.35
2022-08-03T12:58:33.447Z,22.32
2022-08-03T13:01:01.645Z,22.53
2022-08-03T13:03:42.827Z,22.73
2022-08-03T13:06:16.238Z,22.15
2022-08-03T13:08:45.808Z,22.91
2022-08-03T13:11:21.441Z,21.96
2022-08-03T13:13:49.620Z,22.16
2022-08-03T13:16:19.618Z,21.65
2022-08-03T13:18:48.173Z,21.46
2022-08-03T13:21:18.454Z,21.90
2022-08-03T13:23:46.813Z,22.12
2022-08-03T13:26:14.583Z,21.25
2022-08-03T13:28:42.361Z,21.50
2022-08-03T13:31:10.037Z,21.17
2022-08-03T13:33:39.057Z,20.53
2022-08-03T13:36:07.225Z,21.00
2022-08-03T13:38:36.296Z,21.32
2022-08-03T13:41:04.815Z,21.47
2022-08-03T13:43:40.726Z,21.48
2022-08-03T13:46:08.361Z,21.48
2022-08-03T13:48:37.567Z,21.83
2022-08-03T13:51:21.798Z,21.62
2022-08-03T13:53:50.304Z,21.36
2022-08-03T13:56:17.997Z,21.22
2022-08-03T13:58:47.007Z,21.18
2022-08-03T14:01:14.829Z,21.46
2022-08-03T14:03:42.515Z,21.81
2022-08-03T14:06:10.336Z,21.53
2022-08-03T14:08:37.959Z,20.92
2022-08-03T14:11:05.598Z,21.60
2022-08-03T14:13:33.352Z,21.90
2022-08-03T14:16:02.404Z,21.62
2022-08-03T14:18:33.569Z,21.22
2022-08-03T14:21:06.407Z,22.09
2022-08-03T14:23:35.317Z,22.02
2022-08-03T14:26:03.007Z,21.50
2022-08-03T14:28:30.718Z,21.20
2022-08-03T14:30:58.455Z,20.96
2022-08-03T14:33:28.343Z,20.77
2022-08-03T14:35:56.188Z,20.96
2022-08-03T14:38:23.917Z,21.28
2022-08-03T14:40:53.056Z,21.51
2022-08-03T14:43:21.244Z,21.66
2022-08-03T14:45:52.085Z,20.60
2022-08-03T14:50:29.467Z,21.04
2022-08-03T14:51:09.330Z,21.25
2022-08-03T14:53:37.015Z,20.82
2022-08-03T14:56:09.609Z,20.67
2022-08-03T14:58:38.214Z,21.61
2022-08-03T15:02:05.482Z,21.31
2022-08-03T15:03:55.015Z,20.70
2022-08-03T15:06:23.943Z,21.60
2022-08-03T15:09:22.472Z,21.70
2022-08-03T15:11:39.557Z,22.37
2022-08-03T15:14:09.425Z,21.95
2022-08-03T15:16:37.907Z,22.16
2022-08-03T15:20:01.365Z,21.76
2022-08-03T15:21:55.044Z,22.01
2022-08-03T15:24:23.004Z,22.45
2022-08-03T15:26:51.750Z,22.03
2022-08-03T15:30:07.596Z,22.37
2022-08-03T15:32:09.490Z,22.49
2022-08-03T15:34:37.470Z,22.94
2022-08-03T15:37:15.113Z,23.35
2022-08-03T15:39:59.730Z,23.55
2022-08-03T15:42:28.921Z,22.88
2022-08-03T15:44:56.598Z,23.27
2022-08-03T15:47:24.371Z,22.77
2022-08-03T15:49:52.063Z,23.13
2022-08-03T15:52:21.178Z,22.95
2022-08-03T15:54:48.813Z,23.08
2022-08-03T15:57:16.507Z,22.95
2022-08-03T15:59:44.091Z,23.00
2022-08-03T16:02:11.753Z,23.18
2022-08-03T16:04:39.425Z,23.33
2022-08-03T16:07:07.129Z,23.20
2022-08-03T16:09:42.043Z,22.59
2022-08-03T16:12:14.579Z,23.21
2022-08-03T16:14:52.399Z,23.20
2022-08-03T16:17:21.621Z,23.48
2022-08-03T16:19:49.626Z,23.79
2022-08-03T16:22:19.470Z,23.25
2022-08-03T16:24:48.770Z,23.33
2022-08-03T16:27:37.173Z,23.62
2022-08-03T16:30:05.002Z,23.50
2022-08-03T16:32:32.828Z,23.77
2022-08-03T16:35:01.075Z,23.52
2022-08-03T16:37:38.571Z,23.83
2022-08-03T16:40:19.352Z,23.81
2022-08-03T16:42:47.925Z,23.76
2022-08-03T16:45:16.218Z,23.89
2022-08-03T16:47:43.885Z,24.60
2022-08-03T16:50:19.074Z,24.47
2022-08-03T16:52:48.475Z,24.76
2022-08-03T16:55:18.526Z,24.97
2022-08-03T16:58:06.572Z,25.27
2022-08-03T17:00:41.720Z,25.08
2022-08-03T17:03:18.833Z,24.89
2022-08-03T17:05:53.525Z,25.54
2022-08-03T17:08:27.517Z,25.47
2022-08-03T17:10:57.430Z,25.80
2022-08-03T17:13:27.855Z,25.88
2022-08-03T17:16:08.951Z,25.79
2022-08-03T17:18:42.293Z,26.28
2022-08-03T17:21:17.016Z,26.15
2022-08-03T17:23:49.783Z,26.72
2022-08-03T17:26:22.211Z,26.60
2022-08-03T17:28:57.341Z,26.21
2022-08-03T17:31:32.187Z,26.60
2022-08-03T17:34:14.513Z,26.39
2022-08-03T17:39:57.670Z,27.17
2022-08-03T17:42:30.851Z,27.66
2022-08-03T17:45:02.567Z,27.42
2022-08-03T17:47:41.951Z,27.83
2022-08-03T17:50:25.177Z,28.19
2022-08-03T17:53:07.855Z,28.19
2022-08-03T17:55:58.388Z,28.66
2022-08-03T17:58:41.221Z,28.86
2022-08-03T18:01:59.274Z,28.90
2022-08-03T18:04:30.316Z,28.74
2022-08-03T18:07:11.591Z,29.07
2022-08-03T18:10:03.668Z,29.27
2022-08-03T18:12:41.484Z,29.66
2022-08-03T18:15:22.112Z,29.99
2022-08-03T18:17:55.217Z,29.84
2022-08-03T18:20:33.003Z,29.73
2022-08-03T18:23:07.387Z,29.86
2022-08-03T18:25:45.203Z,30.17
2022-08-03T18:28:18.822Z,30.35
2022-08-03T18:30:54.676Z,30.29
2022-08-03T18:34:17.897Z,30.58
2022-08-03T18:36:17.356Z,30.83
2022-08-03T18:38:47.311Z,30.83
2022-08-03T18:41:22.167Z,31.50
2022-08-03T18:44:06.740Z,31.78
2022-08-03T18:46:47.169Z,32.29
2022-08-03T18:49:29.464Z,32.34
2022-08-03T18:52:04.573Z,32.72
2022-08-03T18:54:47.061Z,33.16
2022-08-03T18:57:39.383Z,33.62
2022-08-03T19:00:14.269Z,34.27
2022-08-03T19:02:50.211Z,34.31
2022-08-03T19:05:21.404Z,34.44
2022-08-03T19:07:59.597Z,34.54
2022-08-03T19:10:32.154Z,34.91
2022-08-03T19:13:05.361Z,35.53
2022-08-03T19:15:51.502Z,35.92
2022-08-03T19:18:23.126Z,36.60
2022-08-03T19:20:54.687Z,36.51
2022-08-03T19:23:24.946Z,37.00
2022-08-03T19:25:53.820Z,37.29
2022-08-03T19:28:29.603Z,38.10
2022-08-03T19:31:02.788Z,38.70
2022-08-03T19:33:56.702Z,39.24
2022-08-03T19:36:27.475Z,39.59
2022-08-03T19:38:56.587Z,40.00
2022-08-03T19:41:26.003Z,40.13
2022-08-03T19:44:04.394Z,40.55
2022-08-03T19:46:41.257Z,40.67
2022-08-03T19:49:15.163Z,40.99
2022-08-03T19:51:59.048Z,41.82
2022-08-03T19:54:45.538Z,42.35
2022-08-03T19:57:23.436Z,42.68
2022-08-03T19:59:55.281Z,42.86
2022-08-03T20:02:27.025Z,43.15
2022-08-03T20:04:57.547Z,43.76
2022-08-03T20:07:26.034Z,43.77
2022-08-03T20:09:56.566Z,44.01
2022-08-03T20:12:26.406Z,44.35
2022-08-03T20:14:56.898Z,44.73
2022-08-03T20:17:54.012Z,45.03
2022-08-03T20:20:14.466Z,45.13
2022-08-03T20:22:46.245Z,45.52
2022-08-03T20:25:16.218Z,45.79
2022-08-03T20:28:07.333Z,46.37
2022-08-03T20:30:39.948Z,46.99
2022-08-03T20:33:11.014Z,47.49
2022-08-03T20:35:42.023Z,47.53
2022-08-03T20:38:13.724Z,47.42
2022-08-03T20:40:41.673Z,48.15
2022-08-03T20:43:09.378Z,47.97
2022-08-03T20:45:58.243Z,48.50
2022-08-03T20:48:28.104Z,48.95
2022-08-03T20:50:58.106Z,49.29
2022-08-03T20:53:56.972Z,49.19
2022-08-03T20:56:15.160Z,49.70
2022-08-03T20:58:50.632Z,49.69
2022-08-03T21:01:27.661Z,49.95
2022-08-03T21:04:06.823Z,50.37
2022-08-03T21:06:45.668Z,50.45
2022-08-03T21:09:33.528Z,51.27
2022-08-03T21:12:17.789Z,51.71
2022-08-03T21:14:53.495Z,51.90
2022-08-03T21:17:39.890Z,52.28
2022-08-03T21:20:11.098Z,52.67
2022-08-03T21:22:44.290Z,53.36
2022-08-03T21:25:15.857Z,53.64
2022-08-03T21:27:44.009Z,53.81
2022-08-03T21:30:13.137Z,53.90
2022-08-03T21:32:45.449Z,54.28
2022-08-03T21:35:14.563Z,54.89
2022-08-03T21:37:45.695Z,55.29
2022-08-03T21:40:15.521Z,55.67
2022-08-03T21:42:44.918Z,55.81
2022-08-03T21:45:17.383Z,56.32
2022-08-03T21:47:46.694Z,56.75
2022-08-03T21:50:14.934Z,56.86
2022-08-03T21:52:46.331Z,57.53
2022-08-03T21:55:18.429Z,58.14
2022-08-03T21:57:53.672Z,58.09
2022-08-03T22:00:24.013Z,58.17
2022-08-03T22:02:55.684Z,58.44
2022-08-03T22:05:29.050Z,59.02
2022-08-03T22:08:13.944Z,59.30
2022-08-03T22:10:44.226Z,59.39
2022-08-03T22:13:12.598Z,59.77
2022-08-03T22:15:40.480Z,59.90
2022-08-03T22:18:08.248Z,60.24
2022-08-03T22:20:35.995Z,60.07
2022-08-03T22:23:05.679Z,60.58
2022-08-03T22:25:37.689Z,60.47
2022-08-03T22:28:09.417Z,61.05
2022-08-03T22:30:37.462Z,61.26
2022-08-03T22:33:11.220Z,61.51
2022-08-03T22:35:47.626Z,61.88
2022-08-03T22:38:17.644Z,62.62
2022-08-03T22:40:49.874Z,63.35
2022-08-03T22:43:17.916Z,63.63
2022-08-03T22:46:10.275Z,63.46
2022-08-03T22:48:35.843Z,63.75
2022-08-03T22:51:08.876Z,63.29
2022-08-03T22:53:37.089Z,63.96
2022-08-03T22:56:06.801Z,64.51
2022-08-03T22:58:34.461Z,64.30
2022-08-03T23:01:05.320Z,64.52
2022-08-03T23:04:00.083Z,64.63
2022-08-03T23:06:27.394Z,65.03
2022-08-03T23:08:55.116Z,65.42
2022-08-03T23:11:25.667Z,65.54
2022-08-03T23:13:54.824Z,65.56
2022-08-03T23:16:28.704Z,66.33
2022-08-03T23:18:57.693Z,66.87
2022-08-03T23:21:53.091Z,67.05
2022-08-03T23:24:24.599Z,67.40
2022-08-03T23:26:59.131Z,67.40
2022-08-03T23:29:29.949Z,67.48
2022-08-03T23:31:59.296Z,67.76
2022-08-03T23:34:45.655Z,67.95
2022-08-03T23:37:14.865Z,68.18
2022-08-03T23:39:45.436Z,68.21
2022-08-03T23:42:20.181Z,69.01
2022-08-03T23:44:48.035Z,69.57
2022-08-03T23:47:15.768Z,69.11
2022-08-03T23:49:43.860Z,69.43
2022-08-03T23:52:20.094Z,69.73
2022-08-03T23:55:08.683Z,69.54
2022-08-03T23:57:52.223Z,69.96
